Watsonville, CA (95076)

8:54 PM PST on February 26, 2015 (GMT -0800)
Royal Oaks | Change Station
CLOSE
Current Station
Personal Weather Station
Location: Royal Oaks, CA
Elevation: 354 ft
Nearby Weather Stations

Elev 354 ft 36.90 °N, 121.71 °W | Updated 2 seconds ago

Clear
Clear
53.8 °F
Feels Like 53.8 °F
N
2.0
Wind Variable Wind from ESE
Gusts 5.0 mph

Today
High -- | Low -- °F
--% Chance of Precip.
Yesterday
High -- | Low -- °F
Precip. -- in
6:41 AM 5:58 PM
Waxing Gibbous, 65% visible
Pressure 29.94 in
Visibility 10.0 miles
Clouds Clear
Dew Point 51 °F
Humidity 90%
Rainfall 0.00 in
Snow Depth Not available.
UV 0 out of 12
Pollen 7.30 out of 12
Air Quality Not available.
Flu Activity Not available.
METAR KWVI 270353Z AUTO 06004KT 10SM CLR 14/11 A2994 RMK AO2 SLP138 T01440111

More Conditions Fewer Conditions

Pressure 29.94 in
Visibility 10.0 miles
Clouds Clear
Dew Point 51 °F
Humidity 90%
Rainfall 0.00 in
Snow Depth Not available.
UV 0 out of 12
Pollen 7.30 out of 12
Air Quality Not available.
Flu Activity Not available.
METAR KWVI 270353Z AUTO 06004KT 10SM CLR 14/11 A2994 RMK AO2 SLP138 T01440111

More Conditions Fewer Conditions

10-Day Weather Forecast

Almanac

Astronomy

Feb. 26, 2015 Rise Set
Actual Time
Civil Twilight
Nautical Twilight
Astronomical Twilight
Moon
Length of Visible Light
Length of Day
Tomorrow will be .
, % of the Moon is Illuminated

Today's Extremes

State Highs State Lows

Community

WunderPhotos

Upload Photos

1,800,632 photos uploaded!

WunderBlogs® & News

Nearby

Air Quality

  Air Quality AQ Index Pollutant
Not available.

Snow Depth

Station Depth Elevation

Earthquake Activity

City Distance Mag. Time & Date
Minimum magnitude displayed is 2.5.

Coastal Water Temperatures

Place Temperature

Nearby Weather Stations